createdAt,value
2022-12-14T00:01:18.672Z,15.18
2022-12-14T00:03:46.329Z,14.35
2022-12-14T00:06:18.438Z,12.82
2022-12-14T00:08:46.605Z,14.30
2022-12-14T00:11:16.760Z,13.15
2022-12-14T00:13:43.898Z,14.50
2022-12-14T00:16:17.708Z,13.02
2022-12-14T00:18:48.624Z,12.38
2022-12-14T00:21:15.559Z,13.25
2022-12-14T00:23:45.092Z,13.25
2022-12-14T00:26:44.770Z,13.30
2022-12-14T00:29:11.806Z,12.95
2022-12-14T00:31:38.350Z,13.05
2022-12-14T00:34:04.885Z,12.88
2022-12-14T00:36:31.762Z,14.00
2022-12-14T00:38:58.601Z,13.77
2022-12-14T00:41:25.055Z,13.63
2022-12-14T00:43:51.619Z,13.43
2022-12-14T00:46:18.450Z,12.25
2022-12-14T00:48:45.472Z,12.68
2022-12-14T00:51:14.617Z,14.73
2022-12-14T00:53:41.686Z,13.20
2022-12-14T00:56:08.381Z,12.93
2022-12-14T00:58:35.609Z,12.75
2022-12-14T01:01:05.992Z,12.70
2022-12-14T01:03:33.798Z,13.68
2022-12-14T01:06:00.626Z,13.48
2022-12-14T01:08:35.072Z,12.45
2022-12-14T01:11:09.276Z,12.83
2022-12-14T01:13:37.335Z,13.45
2022-12-14T01:16:09.665Z,12.18
2022-12-14T01:18:37.880Z,11.82
2022-12-14T01:21:20.043Z,12.20
2022-12-14T01:23:48.013Z,13.20
2022-12-14T01:26:16.529Z,11.73
2022-12-14T01:28:43.700Z,12.30
2022-12-14T01:31:14.281Z,11.80
2022-12-14T01:33:41.423Z,12.00
2022-12-14T01:36:10.508Z,12.10
2022-12-14T01:38:37.419Z,11.55
2022-12-14T01:41:04.889Z,12.40
2022-12-14T01:43:50.914Z,12.02
2022-12-14T01:46:38.695Z,11.63
2022-12-14T01:49:14.109Z,11.32
2022-12-14T01:54:13.181Z,11.73
2022-12-14T01:56:42.993Z,11.27
2022-12-14T01:59:18.717Z,11.13
2022-12-14T02:01:46.226Z,11.87
2022-12-14T02:04:16.964Z,11.10
2022-12-14T02:06:45.252Z,10.85
2022-12-14T02:09:18.101Z,11.45
2022-12-14T02:12:10.588Z,10.70
2022-12-14T02:14:37.419Z,10.57
2022-12-14T02:17:04.608Z,10.80
2022-12-14T02:19:31.074Z,10.77
2022-12-14T02:22:25.063Z,10.55
2022-12-14T02:25:09.875Z,11.55
2022-12-14T02:28:03.677Z,10.70
2022-12-14T02:30:35.535Z,10.82
2022-12-14T02:33:31.246Z,10.57
2022-12-14T02:36:04.354Z,11.15
2022-12-14T02:38:44.730Z,10.40
2022-12-14T02:41:16.977Z,10.68
2022-12-14T02:43:53.759Z,10.57
2022-12-14T02:46:32.827Z,10.73
2022-12-14T02:49:10.368Z,10.00
2022-12-14T02:51:58.272Z,11.50
2022-12-14T02:54:53.499Z,10.50
2022-12-14T02:57:26.753Z,10.35
2022-12-14T02:59:57.136Z,10.32
2022-12-14T03:02:25.253Z,10.77
2022-12-14T03:04:52.256Z,10.75
2022-12-14T03:07:33.807Z,11.32
2022-12-14T03:10:32.568Z,10.70
2022-12-14T03:13:15.471Z,10.82
2022-12-14T03:15:45.900Z,10.63
2022-12-14T03:18:15.945Z,10.70
2022-12-14T03:20:45.951Z,10.65
2022-12-14T03:23:16.825Z,10.60
2022-12-14T03:25:50.349Z,10.35
2022-12-14T03:28:24.096Z,11.57
2022-12-14T03:31:01.149Z,10.77
2022-12-14T03:33:31.897Z,10.85
2022-12-14T03:36:06.850Z,10.13
2022-12-14T03:38:41.638Z,10.70
2022-12-14T03:41:29.078Z,10.63
2022-12-14T03:44:29.590Z,10.85
2022-12-14T03:47:04.064Z,11.18
2022-12-14T03:49:36.565Z,11.47
2022-12-14T03:52:35.593Z,10.52
2022-12-14T03:55:11.099Z,11.10
2022-12-14T03:57:53.801Z,11.32
2022-12-14T04:00:23.582Z,10.73
2022-12-14T04:03:21.911Z,10.48
2022-12-14T04:06:05.772Z,10.65
2022-12-14T04:08:47.385Z,11.10
2022-12-14T04:11:35.329Z,10.98
2022-12-14T04:14:48.496Z,11.23
2022-12-14T04:17:41.581Z,11.60
2022-12-14T04:20:13.117Z,10.57
2022-12-14T04:22:46.187Z,10.73
2022-12-14T04:25:37.501Z,11.57
2022-12-14T04:28:43.051Z,10.70
2022-12-14T04:31:14.110Z,10.23
2022-12-14T04:33:47.280Z,10.60
2022-12-14T04:36:30.424Z,11.20
2022-12-14T04:39:02.573Z,9.95
2022-12-14T04:41:36.328Z,10.43
2022-12-14T04:44:13.511Z,9.90
2022-12-14T04:46:41.789Z,10.43
2022-12-14T04:49:19.400Z,10.07
2022-12-14T04:52:05.185Z,10.32
2022-12-14T04:54:42.578Z,9.70
2022-12-14T04:57:23.940Z,9.43
2022-12-14T04:59:50.920Z,10.15
2022-12-14T05:02:36.225Z,10.07
2022-12-14T05:05:02.782Z,10.27
2022-12-14T05:07:57.394Z,10.10
2022-12-14T05:10:44.771Z,9.52
2022-12-14T05:13:18.598Z,9.25
2022-12-14T05:15:54.334Z,9.43
2022-12-14T05:18:21.244Z,9.23
2022-12-14T05:20:48.216Z,9.93
2022-12-14T05:23:16.025Z,9.88
2022-12-14T05:25:42.667Z,8.95
2022-12-14T05:28:12.797Z,9.13
2022-12-14T05:30:39.781Z,9.48
2022-12-14T05:33:06.325Z,9.95
2022-12-14T05:35:32.857Z,9.20
2022-12-14T05:38:00.086Z,9.43
2022-12-14T05:40:26.704Z,9.38
2022-12-14T05:43:04.634Z,9.32
2022-12-14T05:45:31.188Z,9.38
2022-12-14T05:47:57.684Z,9.27
2022-12-14T05:50:24.300Z,9.27
2022-12-14T05:52:51.983Z,8.73
2022-12-14T05:55:18.578Z,8.43
2022-12-14T05:57:45.123Z,8.98
2022-12-14T06:00:12.121Z,9.50
2022-12-14T06:02:38.683Z,9.10
2022-12-14T06:05:05.624Z,8.68
2022-12-14T06:07:32.204Z,8.73
2022-12-14T06:09:58.694Z,8.43
2022-12-14T06:12:26.224Z,9.38
2022-12-14T06:14:52.762Z,8.48
2022-12-14T06:17:19.302Z,8.68
2022-12-14T06:19:49.756Z,8.57
2022-12-14T06:22:17.478Z,8.77
2022-12-14T06:24:43.984Z,8.45
2022-12-14T06:27:10.565Z,8.95
2022-12-14T06:29:37.165Z,8.73
2022-12-14T06:32:03.695Z,8.77
2022-12-14T06:34:32.872Z,9.32
2022-12-14T06:37:03.304Z,8.63
2022-12-14T06:39:29.945Z,8.30
2022-12-14T06:41:56.942Z,8.27
2022-12-14T06:44:23.485Z,8.73
2022-12-14T06:46:49.988Z,8.75
2022-12-14T06:49:17.227Z,8.10
2022-12-14T06:51:44.073Z,8.57
2022-12-14T06:54:12.165Z,8.52
2022-12-14T06:56:43.000Z,8.88
2022-12-14T06:59:10.053Z,9.15
2022-12-14T07:01:37.960Z,8.77
2022-12-14T07:04:05.809Z,8.38
2022-12-14T07:06:35.568Z,9.30
2022-12-14T07:09:03.927Z,9.57
2022-12-14T07:11:30.970Z,9.32
2022-12-14T07:14:00.604Z,9.80
2022-12-14T07:16:29.330Z,9.95
2022-12-14T07:18:56.491Z,9.25
2022-12-14T07:21:24.136Z,9.45
2022-12-14T07:23:52.450Z,9.00
2022-12-14T07:26:24.637Z,9.57
2022-12-14T07:28:52.503Z,8.73
2022-12-14T07:31:22.107Z,9.32
2022-12-14T07:33:48.759Z,9.13
2022-12-14T07:36:17.963Z,8.80
2022-12-14T07:38:46.444Z,8.95
2022-12-14T07:41:23.012Z,8.77
2022-12-14T07:43:51.007Z,8.68
2022-12-14T07:46:20.049Z,8.27
2022-12-14T07:48:49.320Z,9.57
2022-12-14T07:51:18.663Z,8.90
2022-12-14T07:53:45.557Z,8.35
2022-12-14T07:56:36.036Z,9.25
2022-12-14T07:59:04.709Z,10.32
2022-12-14T08:01:34.448Z,9.32
2022-12-14T08:04:08.241Z,8.88
2022-12-14T08:06:35.991Z,10.00
2022-12-14T08:09:03.004Z,8.65
2022-12-14T08:11:29.578Z,8.07
2022-12-14T08:14:01.046Z,8.52
2022-12-14T08:16:28.426Z,9.20
2022-12-14T08:18:56.562Z,8.65
2022-12-14T08:21:24.068Z,8.93
2022-12-14T08:23:52.846Z,8.27
2022-12-14T08:26:19.708Z,7.85
2022-12-14T08:28:47.628Z,8.40
2022-12-14T08:31:16.796Z,8.60
2022-12-14T08:33:45.243Z,7.80
2022-12-14T08:36:14.623Z,8.27
2022-12-14T08:38:41.995Z,8.52
2022-12-14T08:41:10.871Z,11.05
2022-12-14T08:43:38.010Z,10.93
2022-12-14T08:46:05.432Z,8.70
2022-12-14T08:48:32.200Z,8.40
2022-12-14T08:51:06.560Z,7.90
2022-12-14T08:53:33.926Z,7.85
2022-12-14T08:56:05.618Z,7.95
2022-12-14T08:58:32.363Z,7.80
2022-12-14T09:01:07.137Z,8.00
2022-12-14T09:03:34.201Z,9.05
2022-12-14T09:06:08.360Z,9.38
2022-12-14T09:08:35.755Z,8.73
2022-12-14T09:11:04.512Z,9.23
2022-12-14T09:13:32.605Z,8.88
2022-12-14T09:16:08.392Z,9.05
2022-12-14T09:18:35.220Z,9.25
2022-12-14T09:21:02.835Z,9.10
2022-12-14T09:23:31.904Z,9.20
2022-12-14T09:26:04.936Z,9.38
2022-12-14T09:28:33.629Z,9.75
2022-12-14T09:31:05.215Z,9.00
2022-12-14T09:33:33.170Z,8.82
2022-12-14T09:36:05.717Z,8.52
2022-12-14T09:38:34.968Z,9.20
2022-12-14T09:41:07.410Z,9.13
2022-12-14T09:43:51.336Z,7.80
2022-12-14T09:46:55.572Z,8.15
2022-12-14T09:49:32.107Z,8.85
2022-12-14T09:52:09.345Z,8.95
2022-12-14T09:54:38.377Z,9.18
2022-12-14T09:57:12.191Z,9.15
2022-12-14T09:59:38.889Z,8.43
2022-12-14T10:02:33.637Z,8.90
2022-12-14T10:05:16.260Z,8.48
2022-12-14T10:08:02.932Z,8.75
2022-12-14T10:11:06.337Z,8.65
2022-12-14T10:13:47.890Z,7.70
2022-12-14T10:16:36.979Z,8.43
2022-12-14T10:19:35.036Z,9.07
2022-12-14T10:22:14.086Z,8.57
2022-12-14T10:24:47.415Z,8.57
2022-12-14T10:27:22.816Z,8.77
2022-12-14T10:32:25.776Z,9.10
2022-12-14T10:34:52.468Z,9.60
2022-12-14T10:37:37.663Z,8.90
2022-12-14T10:40:29.302Z,9.23
2022-12-14T10:43:26.589Z,8.70
2022-12-14T10:46:22.681Z,9.23
2022-12-14T10:49:05.311Z,8.82
2022-12-14T10:51:39.096Z,8.90
2022-12-14T10:54:22.865Z,8.90
2022-12-14T10:56:50.578Z,8.30
2022-12-14T10:59:26.422Z,7.82
2022-12-14T11:02:01.484Z,9.23
2022-12-14T11:04:31.092Z,8.27
2022-12-14T11:07:00.068Z,8.15
2022-12-14T11:09:27.549Z,9.30
2022-12-14T11:12:12.885Z,8.68
2022-12-14T11:14:52.162Z,8.88
2022-12-14T11:17:45.260Z,8.23
2022-12-14T11:20:16.961Z,9.50
2022-12-14T11:22:46.525Z,8.57
2022-12-14T11:25:28.612Z,8.60
2022-12-14T11:27:55.417Z,7.97
2022-12-14T11:30:21.929Z,8.07
2022-12-14T11:32:49.300Z,8.60
2022-12-14T11:35:20.317Z,8.10
2022-12-14T11:37:50.879Z,8.75
2022-12-14T11:40:25.224Z,8.10
2022-12-14T11:43:00.372Z,7.75
2022-12-14T11:45:26.835Z,8.43
2022-12-14T11:48:15.279Z,8.10
2022-12-14T11:50:43.145Z,7.80
2022-12-14T11:53:11.963Z,8.15
2022-12-14T11:55:43.636Z,7.75
2022-12-14T11:58:22.875Z,8.55
2022-12-14T12:00:58.566Z,8.68
2022-12-14T12:03:29.853Z,7.57
2022-12-14T12:06:03.354Z,9.10
2022-12-14T12:08:33.484Z,8.32
2022-12-14T12:11:02.922Z,8.27
2022-12-14T12:13:35.282Z,8.40
2022-12-14T12:16:06.509Z,8.63
2022-12-14T12:18:46.904Z,8.88
2022-12-14T12:21:27.996Z,8.80
2022-12-14T12:24:01.425Z,8.43
2022-12-14T12:26:36.963Z,8.73
2022-12-14T12:31:45.803Z,7.72
2022-12-14T12:34:21.949Z,8.30
2022-12-14T12:37:24.224Z,8.63
2022-12-14T12:39:41.265Z,9.05
2022-12-14T12:42:20.667Z,8.65
2022-12-14T12:45:01.563Z,8.15
2022-12-14T12:47:47.360Z,8.50
2022-12-14T12:50:18.103Z,8.57
2022-12-14T12:53:17.073Z,8.15
2022-12-14T12:55:54.236Z,8.38
2022-12-14T12:58:32.181Z,9.23
2022-12-14T13:01:17.662Z,8.52
2022-12-14T13:03:47.853Z,8.63
2022-12-14T13:06:20.763Z,8.65
2022-12-14T13:08:53.508Z,9.00
2022-12-14T13:11:27.054Z,9.75
2022-12-14T13:14:17.344Z,8.98
2022-12-14T13:16:45.809Z,8.80
2022-12-14T13:22:17.013Z,8.75
2022-12-14T13:24:47.259Z,9.82
2022-12-14T13:27:25.620Z,9.48
2022-12-14T13:30:23.306Z,8.95
2022-12-14T13:32:58.672Z,8.75
2022-12-14T13:35:28.373Z,8.65
2022-12-14T13:38:22.773Z,9.25
2022-12-14T13:41:15.562Z,9.73
2022-12-14T13:43:57.152Z,8.48
2022-12-14T13:46:29.296Z,9.73
2022-12-14T13:49:02.952Z,8.80
2022-12-14T13:51:32.606Z,9.45
2022-12-14T13:54:00.988Z,9.48
2022-12-14T13:56:34.939Z,9.50
2022-12-14T13:59:06.200Z,8.73
2022-12-14T14:01:48.224Z,8.55
2022-12-14T14:04:29.673Z,8.73
2022-12-14T14:07:25.262Z,8.93
2022-12-14T14:09:54.876Z,8.65
2022-12-14T14:12:43.856Z,8.55
2022-12-14T14:15:26.203Z,8.50
2022-12-14T14:17:54.554Z,8.52
2022-12-14T14:21:13.316Z,9.93
2022-12-14T14:24:18.103Z,11.15
2022-12-14T14:27:08.485Z,9.90
2022-12-14T14:29:36.746Z,10.13
2022-12-14T14:32:29.384Z,9.88
2022-12-14T14:34:56.080Z,9.38
2022-12-14T14:37:27.266Z,8.98
2022-12-14T14:40:38.408Z,9.05
2022-12-14T14:43:30.135Z,8.77
2022-12-14T14:46:01.992Z,9.35
2022-12-14T14:48:50.385Z,8.98
2022-12-14T14:51:25.259Z,9.13
2022-12-14T14:54:36.983Z,9.25
2022-12-14T14:57:02.876Z,8.77
2022-12-14T14:59:43.787Z,8.43
2022-12-14T15:02:31.628Z,9.35
2022-12-14T15:05:17.502Z,8.40
2022-12-14T15:07:46.722Z,9.38
2022-12-14T15:10:26.704Z,7.68
2022-12-14T15:12:56.860Z,8.07
2022-12-14T15:15:47.587Z,8.30
2022-12-14T15:18:22.526Z,8.18
2022-12-14T15:21:06.251Z,9.27
2022-12-14T15:23:55.097Z,8.35
2022-12-14T15:26:26.877Z,8.75
2022-12-14T15:28:56.601Z,8.70
2022-12-14T15:31:40.047Z,9.02
2022-12-14T15:34:07.840Z,8.60
2022-12-14T15:36:37.887Z,8.65
2022-12-14T15:39:04.690Z,9.38
2022-12-14T15:41:33.229Z,9.18
2022-12-14T15:44:00.705Z,8.15
2022-12-14T15:46:34.989Z,7.97
2022-12-14T15:49:06.965Z,8.48
2022-12-14T15:51:38.059Z,8.32
2022-12-14T15:54:07.099Z,7.85
2022-12-14T15:56:35.333Z,8.63
2022-12-14T15:59:05.155Z,9.05
2022-12-14T16:01:40.469Z,9.25
2022-12-14T16:06:42.759Z,9.07
2022-12-14T16:09:27.365Z,9.13
2022-12-14T16:11:57.252Z,8.50
2022-12-14T16:14:47.023Z,9.13
2022-12-14T16:17:18.122Z,9.18
2022-12-14T16:19:59.393Z,8.65
2022-12-14T16:22:31.164Z,7.53
2022-12-14T16:25:07.937Z,8.70
2022-12-14T16:27:39.456Z,8.55
2022-12-14T16:30:24.404Z,8.60
2022-12-14T16:32:53.551Z,8.83
2022-12-14T16:35:23.497Z,8.32
2022-12-14T16:37:54.212Z,9.35
2022-12-14T16:40:29.625Z,9.38
2022-12-14T16:45:41.385Z,8.48
2022-12-14T16:48:09.085Z,8.52
2022-12-14T16:53:25.200Z,9.55
2022-12-14T16:56:16.412Z,9.73
2022-12-14T16:58:53.164Z,9.05
2022-12-14T17:01:20.708Z,9.20
2022-12-14T17:03:55.411Z,9.48
2022-12-14T17:06:28.852Z,8.85
2022-12-14T17:08:55.431Z,9.82
2022-12-14T17:11:21.891Z,9.15
2022-12-14T17:13:49.683Z,9.52
2022-12-14T17:16:21.045Z,10.48
2022-12-14T17:18:48.141Z,9.35
2022-12-14T17:21:23.647Z,10.52
2022-12-14T17:23:50.606Z,9.85
2022-12-14T17:26:23.715Z,9.77
2022-12-14T17:28:50.823Z,10.30
2022-12-14T17:31:20.100Z,11.15
2022-12-14T17:33:46.865Z,10.57
2022-12-14T17:36:13.393Z,10.98
2022-12-14T17:38:40.595Z,10.40
2022-12-14T17:41:07.432Z,10.88
2022-12-14T17:43:34.543Z,9.70
2022-12-14T17:46:03.083Z,9.00
2022-12-14T17:48:29.686Z,10.18
2022-12-14T17:50:56.354Z,10.60
2022-12-14T17:53:29.104Z,10.50
2022-12-14T17:55:56.426Z,11.65
2022-12-14T17:58:23.008Z,11.43
2022-12-14T18:01:02.752Z,11.43
2022-12-14T18:03:32.122Z,12.32
2022-12-14T18:05:59.548Z,11.88
2022-12-14T18:08:26.972Z,12.98
2022-12-14T18:11:02.106Z,11.70
2022-12-14T18:13:31.754Z,11.65
2022-12-14T18:15:59.971Z,11.68
2022-12-14T18:18:28.203Z,12.38
2022-12-14T18:21:00.626Z,12.25
2022-12-14T18:23:29.726Z,12.25
2022-12-14T18:25:59.476Z,10.98
2022-12-14T18:28:26.336Z,11.45
2022-12-14T18:30:59.099Z,12.18
2022-12-14T18:33:27.938Z,12.27
2022-12-14T18:35:56.463Z,12.80
2022-12-14T18:38:23.887Z,12.52
2022-12-14T18:40:53.136Z,12.35
2022-12-14T18:43:25.575Z,12.55
2022-12-14T18:45:53.444Z,12.75
2022-12-14T18:48:20.553Z,11.90
2022-12-14T18:50:49.628Z,11.98
2022-12-14T18:53:19.168Z,11.38
2022-12-14T18:55:45.838Z,13.05
2022-12-14T18:58:17.589Z,11.55
2022-12-14T19:00:44.866Z,11.80
2022-12-14T19:03:11.671Z,12.25
2022-12-14T19:05:38.521Z,11.57
2022-12-14T19:08:05.292Z,10.93
2022-12-14T19:10:32.969Z,11.55
2022-12-14T19:12:59.484Z,10.68
2022-12-14T19:15:29.309Z,11.02
2022-12-14T19:17:56.296Z,11.15
2022-12-14T19:20:23.690Z,11.75
2022-12-14T19:22:50.744Z,10.85
2022-12-14T19:25:19.507Z,12.30
2022-12-14T19:28:30.197Z,11.57
2022-12-14T19:30:34.550Z,11.63
2022-12-14T19:33:01.064Z,12.38
2022-12-14T19:35:27.966Z,12.35
2022-12-14T19:37:54.608Z,12.60
2022-12-14T19:40:21.349Z,12.80
2022-12-14T19:42:47.934Z,11.57
2022-12-14T19:45:15.648Z,11.73
2022-12-14T19:47:43.948Z,10.98
2022-12-14T19:50:13.396Z,12.18
2022-12-14T19:52:40.187Z,11.07
2022-12-14T19:55:07.226Z,10.85
2022-12-14T19:57:33.726Z,11.13
2022-12-14T20:00:00.376Z,10.50
2022-12-14T20:02:27.156Z,10.20
2022-12-14T20:04:53.963Z,11.00
2022-12-14T20:07:20.522Z,10.43
2022-12-14T20:09:47.059Z,10.98
2022-12-14T20:12:13.817Z,10.52
2022-12-14T20:14:40.645Z,11.13
2022-12-14T20:17:08.360Z,11.30
2022-12-14T20:19:36.249Z,10.95
2022-12-14T20:22:02.838Z,10.80
2022-12-14T20:24:29.459Z,12.15
2022-12-14T20:26:56.152Z,12.05
2022-12-14T20:29:23.091Z,12.45
2022-12-14T20:31:49.809Z,12.00
2022-12-14T20:34:16.435Z,11.63
2022-12-14T20:36:42.920Z,12.75
2022-12-14T20:39:10.034Z,12.30
2022-12-14T20:41:36.835Z,16.10
2022-12-14T20:44:07.380Z,13.88
2022-12-14T20:46:36.205Z,12.85
2022-12-14T20:49:08.163Z,13.38
2022-12-14T20:51:37.862Z,11.82
2022-12-14T20:54:06.337Z,12.25
2022-12-14T20:56:34.744Z,11.52
2022-12-14T20:59:01.463Z,12.75
2022-12-14T21:01:28.332Z,13.13
2022-12-14T21:03:57.603Z,12.90
2022-12-14T21:06:25.197Z,13.07
2022-12-14T21:09:10.275Z,11.80
2022-12-14T21:12:04.277Z,13.15
2022-12-14T21:14:36.232Z,13.65
2022-12-14T21:17:04.019Z,14.13
2022-12-14T21:19:32.125Z,12.70
2022-12-14T21:21:58.784Z,13.40
2022-12-14T21:25:00.557Z,14.25
2022-12-14T21:27:22.194Z,14.55
2022-12-14T21:29:49.719Z,14.80
2022-12-14T21:32:17.059Z,15.23
2022-12-14T21:34:44.253Z,14.75
2022-12-14T21:37:11.322Z,14.50
2022-12-14T21:39:38.200Z,14.25
2022-12-14T21:42:10.623Z,15.27
2022-12-14T21:44:37.640Z,15.18
2022-12-14T21:47:07.181Z,15.25
2022-12-14T21:49:36.734Z,15.07
2022-12-14T21:52:07.298Z,13.90
2022-12-14T21:54:36.002Z,13.70
2022-12-14T21:57:20.982Z,14.63
2022-12-14T21:59:47.648Z,13.85
2022-12-14T22:02:14.304Z,13.98
2022-12-14T22:04:41.342Z,13.73
2022-12-14T22:07:07.914Z,14.43
2022-12-14T22:09:34.423Z,14.30
2022-12-14T22:12:00.974Z,13.90
2022-12-14T22:14:27.458Z,13.85
2022-12-14T22:16:54.053Z,14.30
2022-12-14T22:19:23.134Z,14.05
2022-12-14T22:21:50.948Z,14.15
2022-12-14T22:24:18.614Z,14.85
2022-12-14T22:26:45.510Z,15.50
2022-12-14T22:29:13.019Z,15.30
2022-12-14T22:31:39.601Z,15.65
2022-12-14T22:34:06.945Z,14.85
2022-12-14T22:36:33.422Z,15.85
2022-12-14T22:39:00.029Z,15.30
2022-12-14T22:41:27.436Z,15.65
2022-12-14T22:43:58.476Z,14.43
2022-12-14T22:46:26.747Z,13.80
2022-12-14T22:48:53.879Z,13.80
2022-12-14T22:51:21.881Z,12.85
2022-12-14T22:53:49.730Z,13.50
2022-12-14T22:56:31.172Z,14.43
2022-12-14T22:59:02.500Z,14.50
2022-12-14T23:01:29.685Z,14.90
2022-12-14T23:03:56.772Z,14.07
2022-12-14T23:06:23.469Z,15.20
2022-12-14T23:09:08.681Z,15.32
2022-12-14T23:11:53.723Z,15.10
2022-12-14T23:14:39.079Z,14.27
2022-12-14T23:17:28.013Z,15.80
2022-12-14T23:20:12.906Z,14.63
2022-12-14T23:22:57.938Z,13.75
2022-12-14T23:25:42.747Z,14.70
2022-12-14T23:28:28.049Z,14.03
2022-12-14T23:31:15.647Z,13.68
2022-12-14T23:34:01.272Z,13.75
2022-12-14T23:36:46.634Z,15.00
2022-12-14T23:39:31.375Z,14.15
2022-12-14T23:42:16.395Z,14.88
2022-12-14T23:45:01.267Z,15.25
2022-12-14T23:47:46.299Z,15.65
2022-12-14T23:50:34.671Z,14.85
2022-12-14T23:53:27.681Z,14.38
2022-12-14T23:56:12.849Z,14.73
2022-12-14T23:58:57.548Z,15.07
